sensor_id;sensor_type;location;lat;lon;timestamp;pressure;altitude;pressure_sealevel;temperature;humidity
29359;BME280;16347;53.232;6.556;2023-08-20T00:00:33;102002.66;;;23.10;56.71
29359;BME280;16347;53.232;6.556;2023-08-20T00:03:04;102001.59;;;23.05;56.04
29359;BME280;16347;53.232;6.556;2023-08-20T00:05:38;101993.69;;;22.95;56.35
29359;BME280;16347;53.232;6.556;2023-08-20T00:08:07;102001.59;;;22.98;56.39
29359;BME280;16347;53.232;6.556;2023-08-20T00:10:36;102000.53;;;22.92;55.85
29359;BME280;16347;53.232;6.556;2023-08-20T00:13:04;101995.59;;;22.88;56.47
29359;BME280;16347;53.232;6.556;2023-08-20T00:15:32;101998.16;;;22.76;56.80
29359;BME280;16347;53.232;6.556;2023-08-20T00:18:00;102009.25;;;22.76;56.97
29359;BME280;16347;53.232;6.556;2023-08-20T00:20:29;102013.69;;;22.71;57.09
29359;BME280;16347;53.232;6.556;2023-08-20T00:22:57;102013.94;;;22.76;57.04
29359;BME280;16347;53.232;6.556;2023-08-20T00:25:27;102019.50;;;22.76;56.53
29359;BME280;16347;53.232;6.556;2023-08-20T00:27:55;102014.81;;;22.76;57.24
29359;BME280;16347;53.232;6.556;2023-08-20T00:30:23;102022.69;;;22.79;57.26
29359;BME280;16347;53.232;6.556;2023-08-20T00:32:51;102021.59;;;22.74;56.50
29359;BME280;16347;53.232;6.556;2023-08-20T00:35:19;102021.59;;;22.67;56.80
29359;BME280;16347;53.232;6.556;2023-08-20T00:37:48;102021.59;;;22.67;57.53
29359;BME280;16347;53.232;6.556;2023-08-20T00:40:16;102013.44;;;22.59;56.46
29359;BME280;16347;53.232;6.556;2023-08-20T00:42:45;102018.13;;;22.59;57.42
29359;BME280;16347;53.232;6.556;2023-08-20T00:45:13;102025.78;;;22.57;57.00
29359;BME280;16347;53.232;6.556;2023-08-20T00:47:43;102027.50;;;22.51;57.27
29359;BME280;16347;53.232;6.556;2023-08-20T00:50:11;102017.88;;;22.54;57.41
29359;BME280;16347;53.232;6.556;2023-08-20T00:52:40;102016.81;;;22.48;57.63
29359;BME280;16347;53.232;6.556;2023-08-20T00:55:09;102025.56;;;22.52;57.93
29359;BME280;16347;53.232;6.556;2023-08-20T00:57:38;102039.88;;;22.55;57.68
29359;BME280;16347;53.232;6.556;2023-08-20T01:00:09;102032.84;;;22.53;57.57
29359;BME280;16347;53.232;6.556;2023-08-20T01:02:38;102035.19;;;22.56;57.74
29359;BME280;16347;53.232;6.556;2023-08-20T01:05:08;102033.91;;;22.58;57.69
29359;BME280;16347;53.232;6.556;2023-08-20T01:07:47;102039.66;;;22.63;57.72
29359;BME280;16347;53.232;6.556;2023-08-20T01:10:19;102020.25;;;22.63;57.77
29359;BME280;16347;53.232;6.556;2023-08-20T01:12:52;102025.81;;;22.63;56.99
29359;BME280;16347;53.232;6.556;2023-08-20T01:15:21;102022.81;;;22.58;56.65
29359;BME280;16347;53.232;6.556;2023-08-20T01:17:49;102027.88;;;22.41;56.80
29359;BME280;16347;53.232;6.556;2023-08-20T01:20:18;102028.06;;;22.33;57.27
29359;BME280;16347;53.232;6.556;2023-08-20T01:23:05;102031.06;;;22.38;57.88
29359;BME280;16347;53.232;6.556;2023-08-20T01:25:49;102037.88;;;22.29;57.84
29359;BME280;16347;53.232;6.556;2023-08-20T01:28:25;102036.97;;;22.22;57.70
29359;BME280;16347;53.232;6.556;2023-08-20T01:30:54;102037.41;;;22.19;57.82
29359;BME280;16347;53.232;6.556;2023-08-20T01:33:24;102044.44;;;22.22;57.86
29359;BME280;16347;53.232;6.556;2023-08-20T01:35:54;102047.81;;;22.17;57.42
29359;BME280;16347;53.232;6.556;2023-08-20T01:38:22;102049.56;;;22.25;58.09
29359;BME280;16347;53.232;6.556;2023-08-20T01:40:50;102063.59;;;22.23;57.69
29359;BME280;16347;53.232;6.556;2023-08-20T01:43:18;102068.53;;;22.28;57.33
29359;BME280;16347;53.232;6.556;2023-08-20T01:45:47;102068.25;;;22.16;57.27
29359;BME280;16347;53.232;6.556;2023-08-20T01:48:15;102064.66;;;22.16;57.57
29359;BME280;16347;53.232;6.556;2023-08-20T01:50:43;102073.16;;;22.14;57.09
29359;BME280;16347;53.232;6.556;2023-08-20T01:53:12;102072.25;;;22.07;57.41
29359;BME280;16347;53.232;6.556;2023-08-20T01:55:41;102073.50;;;21.98;57.43
29359;BME280;16347;53.232;6.556;2023-08-20T01:58:09;102081.59;;;21.99;58.14
29359;BME280;16347;53.232;6.556;2023-08-20T02:00:37;102085.63;;;21.97;57.78
29359;BME280;16347;53.232;6.556;2023-08-20T02:03:07;102082.63;;;21.92;57.76
29359;BME280;16347;53.232;6.556;2023-08-20T02:05:35;102079.00;;;21.91;57.31
29359;BME280;16347;53.232;6.556;2023-08-20T02:08:07;102086.16;;;21.86;57.56
29359;BME280;16347;53.232;6.556;2023-08-20T02:10:36;102083.56;;;21.78;57.41
29359;BME280;16347;53.232;6.556;2023-08-20T02:13:04;102094.38;;;21.45;58.32
29359;BME280;16347;53.232;6.556;2023-08-20T02:15:33;102094.03;;;21.55;58.36
29359;BME280;16347;53.232;6.556;2023-08-20T02:18:02;102095.88;;;21.47;58.76
29359;BME280;16347;53.232;6.556;2023-08-20T02:20:32;102091.84;;;21.50;59.42
29359;BME280;16347;53.232;6.556;2023-08-20T02:23:00;102096.06;;;21.46;58.79
29359;BME280;16347;53.232;6.556;2023-08-20T02:25:28;102089.09;;;21.50;59.46
29359;BME280;16347;53.232;6.556;2023-08-20T02:27:55;102087.38;;;21.49;59.41
29359;BME280;16347;53.232;6.556;2023-08-20T02:30:23;102072.03;;;21.46;58.96
29359;BME280;16347;53.232;6.556;2023-08-20T02:32:52;102072.94;;;21.54;59.48
29359;BME280;16347;53.232;6.556;2023-08-20T02:35:20;102080.88;;;21.63;58.86
29359;BME280;16347;53.232;6.556;2023-08-20T02:37:52;102075.63;;;21.68;59.65
29359;BME280;16347;53.232;6.556;2023-08-20T02:40:19;102063.31;;;21.77;59.37
29359;BME280;16347;53.232;6.556;2023-08-20T02:42:47;102052.06;;;21.79;58.59
29359;BME280;16347;53.232;6.556;2023-08-20T02:45:15;102055.47;;;21.81;58.96
29359;BME280;16347;53.232;6.556;2023-08-20T02:47:43;102053.34;;;21.83;58.83
29359;BME280;16347;53.232;6.556;2023-08-20T02:50:11;102044.78;;;21.78;58.87
29359;BME280;16347;53.232;6.556;2023-08-20T02:52:39;102037.94;;;21.74;59.32
29359;BME280;16347;53.232;6.556;2023-08-20T02:55:08;102035.78;;;21.69;59.66
29359;BME280;16347;53.232;6.556;2023-08-20T02:57:36;102042.41;;;21.68;59.19
29359;BME280;16347;53.232;6.556;2023-08-20T03:00:05;102036.84;;;21.68;59.43
29359;BME280;16347;53.232;6.556;2023-08-20T03:02:37;102048.75;;;21.62;59.62
29359;BME280;16347;53.232;6.556;2023-08-20T03:05:07;102048.75;;;21.62;59.57
29359;BME280;16347;53.232;6.556;2023-08-20T03:07:37;102057.31;;;21.46;59.93
29359;BME280;16347;53.232;6.556;2023-08-20T03:10:06;102049.25;;;21.44;60.05
29359;BME280;16347;53.232;6.556;2023-08-20T03:12:35;102040.50;;;21.41;60.76
29359;BME280;16347;53.232;6.556;2023-08-20T03:15:03;102052.88;;;21.45;60.75
29359;BME280;16347;53.232;6.556;2023-08-20T03:17:31;102046.88;;;21.41;60.72
29359;BME280;16347;53.232;6.556;2023-08-20T03:20:00;102038.72;;;21.33;60.72
29359;BME280;16347;53.232;6.556;2023-08-20T03:22:28;102030.19;;;21.28;61.21
29359;BME280;16347;53.232;6.556;2023-08-20T03:24:56;102033.00;;;21.35;61.33
29359;BME280;16347;53.232;6.556;2023-08-20T03:27:24;102030.69;;;21.38;60.90
29359;BME280;16347;53.232;6.556;2023-08-20T03:29:54;102028.50;;;21.34;60.87
29359;BME280;16347;53.232;6.556;2023-08-20T03:32:22;102028.97;;;21.37;61.35
29359;BME280;16347;53.232;6.556;2023-08-20T03:34:50;102036.59;;;21.35;60.56
29359;BME280;16347;53.232;6.556;2023-08-20T03:37:20;102036.34;;;21.30;61.04
29359;BME280;16347;53.232;6.556;2023-08-20T03:39:47;102029.50;;;21.26;60.96
29359;BME280;16347;53.232;6.556;2023-08-20T03:42:15;102035.03;;;21.26;61.17
29359;BME280;16347;53.232;6.556;2023-08-20T03:44:44;102038.03;;;21.25;60.57
29359;BME280;16347;53.232;6.556;2023-08-20T03:47:13;102040.47;;;21.13;60.75
29359;BME280;16347;53.232;6.556;2023-08-20T03:49:42;102047.72;;;21.14;61.24
29359;BME280;16347;53.232;6.556;2023-08-20T03:52:10;102054.75;;;21.17;60.52
29359;BME280;16347;53.232;6.556;2023-08-20T03:54:37;102047.94;;;21.19;61.10
29359;BME280;16347;53.232;6.556;2023-08-20T03:57:05;102051.00;;;21.24;61.46
29359;BME280;16347;53.232;6.556;2023-08-20T03:59:33;102057.91;;;21.35;61.07
29359;BME280;16347;53.232;6.556;2023-08-20T04:02:01;102057.69;;;21.36;60.16
29359;BME280;16347;53.232;6.556;2023-08-20T04:04:30;102052.38;;;21.35;59.99
29359;BME280;16347;53.232;6.556;2023-08-20T04:06:58;102065.06;;;21.29;60.15
29359;BME280;16347;53.232;6.556;2023-08-20T04:09:26;102072.91;;;21.26;59.65
29359;BME280;16347;53.232;6.556;2023-08-20T04:11:54;102082.00;;;21.20;60.09
29359;BME280;16347;53.232;6.556;2023-08-20T04:14:22;102075.47;;;21.06;59.97
29359;BME280;16347;53.232;6.556;2023-08-20T04:16:52;102087.25;;;20.93;60.06
29359;BME280;16347;53.232;6.556;2023-08-20T04:19:19;102081.56;;;20.80;61.01
29359;BME280;16347;53.232;6.556;2023-08-20T04:21:49;102082.28;;;20.68;61.44
29359;BME280;16347;53.232;6.556;2023-08-20T04:24:17;102086.88;;;20.61;61.32
29359;BME280;16347;53.232;6.556;2023-08-20T04:26:45;102087.75;;;20.46;62.24
29359;BME280;16347;53.232;6.556;2023-08-20T04:29:17;102098.25;;;20.36;62.25
29359;BME280;16347;53.232;6.556;2023-08-20T04:31:45;102095.84;;;20.19;62.75
29359;BME280;16347;53.232;6.556;2023-08-20T04:34:13;102100.38;;;20.34;62.05
29359;BME280;16347;53.232;6.556;2023-08-20T04:36:49;102087.78;;;20.32;62.71
29359;BME280;16347;53.232;6.556;2023-08-20T04:39:18;102096.16;;;20.24;62.82
29359;BME280;16347;53.232;6.556;2023-08-20T04:41:49;102097.97;;;20.17;63.14
29359;BME280;16347;53.232;6.556;2023-08-20T04:44:18;102104.34;;;20.17;63.06
29359;BME280;16347;53.232;6.556;2023-08-20T04:46:48;102094.81;;;20.20;62.98
29359;BME280;16347;53.232;6.556;2023-08-20T04:49:17;102113.19;;;20.13;63.16
29359;BME280;16347;53.232;6.556;2023-08-20T04:51:45;102105.00;;;20.05;63.49
29359;BME280;16347;53.232;6.556;2023-08-20T04:54:14;102111.50;;;19.97;63.46
29359;BME280;16347;53.232;6.556;2023-08-20T04:56:42;102108.69;;;19.82;64.25
29359;BME280;16347;53.232;6.556;2023-08-20T04:59:10;102113.19;;;19.83;64.09
29359;BME280;16347;53.232;6.556;2023-08-20T05:01:50;102114.81;;;19.92;63.44
29359;BME280;16347;53.232;6.556;2023-08-20T05:04:32;102124.03;;;20.00;63.42
29359;BME280;16347;53.232;6.556;2023-08-20T05:07:00;102118.44;;;19.93;63.58
29359;BME280;16347;53.232;6.556;2023-08-20T05:09:32;102123.53;;;19.81;64.27
29359;BME280;16347;53.232;6.556;2023-08-20T05:12:00;102132.69;;;19.82;63.76
29359;BME280;16347;53.232;6.556;2023-08-20T05:14:29;102126.94;;;19.69;64.54
29359;BME280;16347;53.232;6.556;2023-08-20T05:16:57;102129.16;;;19.73;64.63
29359;BME280;16347;53.232;6.556;2023-08-20T05:19:25;102134.97;;;19.78;64.51
29359;BME280;16347;53.232;6.556;2023-08-20T05:21:53;102132.50;;;19.83;64.13
29359;BME280;16347;53.232;6.556;2023-08-20T05:24:23;102131.81;;;19.81;64.17
29359;BME280;16347;53.232;6.556;2023-08-20T05:27:05;102131.91;;;19.73;64.43
29359;BME280;16347;53.232;6.556;2023-08-20T05:29:34;102141.50;;;19.63;64.50
29359;BME280;16347;53.232;6.556;2023-08-20T05:32:02;102132.78;;;19.51;65.32
29359;BME280;16347;53.232;6.556;2023-08-20T05:34:30;102136.91;;;19.55;65.54
29359;BME280;16347;53.232;6.556;2023-08-20T05:36:59;102141.97;;;19.66;64.93
29359;BME280;16347;53.232;6.556;2023-08-20T05:39:29;102146.75;;;19.72;65.25
29359;BME280;16347;53.232;6.556;2023-08-20T05:41:57;102138.56;;;19.79;64.93
29359;BME280;16347;53.232;6.556;2023-08-20T05:44:27;102128.09;;;19.74;65.06
29359;BME280;16347;53.232;6.556;2023-08-20T05:46:55;102139.63;;;19.78;64.88
29359;BME280;16347;53.232;6.556;2023-08-20T05:49:25;102134.03;;;19.86;65.04
29359;BME280;16347;53.232;6.556;2023-08-20T05:51:56;102138.41;;;19.80;64.67
29359;BME280;16347;53.232;6.556;2023-08-20T05:54:24;102131.34;;;19.78;65.02
29359;BME280;16347;53.232;6.556;2023-08-20T05:56:54;102128.84;;;19.68;66.21
29359;BME280;16347;53.232;6.556;2023-08-20T05:59:22;102138.09;;;19.61;66.46
29359;BME280;16347;53.232;6.556;2023-08-20T06:01:52;102127.47;;;19.87;66.50
29359;BME280;16347;53.232;6.556;2023-08-20T06:04:20;102123.38;;;19.83;66.03
29359;BME280;16347;53.232;6.556;2023-08-20T06:06:48;102130.88;;;19.89;66.02
29359;BME280;16347;53.232;6.556;2023-08-20T06:09:16;102129.50;;;20.08;66.08
29359;BME280;16347;53.232;6.556;2023-08-20T06:11:44;102127.56;;;19.93;66.01
29359;BME280;16347;53.232;6.556;2023-08-20T06:14:12;102125.09;;;19.98;66.00
29359;BME280;16347;53.232;6.556;2023-08-20T06:16:40;102125.94;;;19.99;66.91
29359;BME280;16347;53.232;6.556;2023-08-20T06:19:09;102118.63;;;20.06;67.49
29359;BME280;16347;53.232;6.556;2023-08-20T06:21:37;102125.66;;;20.09;67.43
29359;BME280;16347;53.232;6.556;2023-08-20T06:24:05;102131.47;;;19.99;67.16
29359;BME280;16347;53.232;6.556;2023-08-20T06:26:34;102127.31;;;20.18;67.53
29359;BME280;16347;53.232;6.556;2023-08-20T06:29:01;102130.06;;;20.32;67.29
29359;BME280;16347;53.232;6.556;2023-08-20T06:31:30;102123.78;;;20.38;66.92
29359;BME280;16347;53.232;6.556;2023-08-20T06:33:58;102131.31;;;20.30;67.27
29359;BME280;16347;53.232;6.556;2023-08-20T06:36:27;102138.13;;;20.19;67.95
29359;BME280;16347;53.232;6.556;2023-08-20T06:38:55;102134.91;;;20.16;67.86
29359;BME280;16347;53.232;6.556;2023-08-20T06:41:22;102136.72;;;20.23;68.13
29359;BME280;16347;53.232;6.556;2023-08-20T06:43:50;102134.81;;;20.09;68.94
29359;BME280;16347;53.232;6.556;2023-08-20T06:46:18;102135.91;;;20.37;68.42
29359;BME280;16347;53.232;6.556;2023-08-20T06:52:42;102137.19;;;20.41;68.91
29359;BME280;16347;53.232;6.556;2023-08-20T06:55:10;102135.78;;;20.45;68.85
29359;BME280;16347;53.232;6.556;2023-08-20T06:57:38;102138.78;;;20.65;68.64
29359;BME280;16347;53.232;6.556;2023-08-20T07:00:07;102141.09;;;20.62;68.74
29359;BME280;16347;53.232;6.556;2023-08-20T07:02:35;102144.94;;;20.46;69.23
29359;BME280;16347;53.232;6.556;2023-08-20T07:05:03;102154.72;;;20.48;69.36
29359;BME280;16347;53.232;6.556;2023-08-20T07:07:31;102149.59;;;20.60;69.03
29359;BME280;16347;53.232;6.556;2023-08-20T07:10:01;102149.19;;;20.63;68.91
29359;BME280;16347;53.232;6.556;2023-08-20T07:12:30;102152.41;;;20.81;68.63
29359;BME280;16347;53.232;6.556;2023-08-20T07:14:58;102149.03;;;20.86;68.63
29359;BME280;16347;53.232;6.556;2023-08-20T07:17:25;102148.94;;;20.94;68.33
29359;BME280;16347;53.232;6.556;2023-08-20T07:19:53;102153.13;;;20.90;68.37
29359;BME280;16347;53.232;6.556;2023-08-20T07:22:21;102153.56;;;21.08;68.21
29359;BME280;16347;53.232;6.556;2023-08-20T07:24:49;102152.91;;;21.06;68.22
29359;BME280;16347;53.232;6.556;2023-08-20T07:27:19;102167.78;;;21.05;67.54
29359;BME280;16347;53.232;6.556;2023-08-20T07:29:47;102163.31;;;21.04;68.03
29359;BME280;16347;53.232;6.556;2023-08-20T07:32:14;102167.28;;;21.16;67.77
29359;BME280;16347;53.232;6.556;2023-08-20T07:34:42;102166.22;;;21.32;67.48
29359;BME280;16347;53.232;6.556;2023-08-20T07:37:12;102164.09;;;21.34;67.34
29359;BME280;16347;53.232;6.556;2023-08-20T07:39:40;102167.78;;;21.41;66.78
29359;BME280;16347;53.232;6.556;2023-08-20T07:42:10;102173.25;;;21.34;66.73
29359;BME280;16347;53.232;6.556;2023-08-20T07:44:40;102167.50;;;21.36;66.44
29359;BME280;16347;53.232;6.556;2023-08-20T07:47:08;102161.03;;;21.50;66.76
29359;BME280;16347;53.232;6.556;2023-08-20T07:49:35;102165.78;;;21.56;66.95
29359;BME280;16347;53.232;6.556;2023-08-20T07:52:03;102157.22;;;21.72;66.55
29359;BME280;16347;53.232;6.556;2023-08-20T07:54:31;102155.72;;;21.76;66.44
29359;BME280;16347;53.232;6.556;2023-08-20T07:56:59;102143.22;;;21.80;66.36
29359;BME280;16347;53.232;6.556;2023-08-20T07:59:28;102155.78;;;21.83;65.77
29359;BME280;16347;53.232;6.556;2023-08-20T08:01:57;102167.81;;;21.90;65.28
29359;BME280;16347;53.232;6.556;2023-08-20T08:04:25;102153.69;;;21.85;64.99
29359;BME280;16347;53.232;6.556;2023-08-20T08:06:52;102151.91;;;21.77;64.64
29359;BME280;16347;53.232;6.556;2023-08-20T08:09:26;102156.91;;;21.88;64.83
29359;BME280;16347;53.232;6.556;2023-08-20T08:11:54;102153.41;;;21.80;64.36
29359;BME280;16347;53.232;6.556;2023-08-20T08:14:22;102157.41;;;21.92;64.80
29359;BME280;16347;53.232;6.556;2023-08-20T08:16:50;102162.19;;;22.05;64.63
29359;BME280;16347;53.232;6.556;2023-08-20T08:19:20;102165.59;;;22.07;64.68
29359;BME280;16347;53.232;6.556;2023-08-20T08:21:48;102165.34;;;22.02;64.83
29359;BME280;16347;53.232;6.556;2023-08-20T08:24:16;102174.34;;;22.10;64.52
29359;BME280;16347;53.232;6.556;2023-08-20T08:26:45;102161.22;;;22.19;64.09
29359;BME280;16347;53.232;6.556;2023-08-20T08:29:12;102167.53;;;22.13;64.03
29359;BME280;16347;53.232;6.556;2023-08-20T08:31:41;102165.72;;;21.92;64.66
29359;BME280;16347;53.232;6.556;2023-08-20T08:34:08;102166.84;;;22.04;64.14
29359;BME280;16347;53.232;6.556;2023-08-20T08:36:38;102172.25;;;22.12;63.96
29359;BME280;16347;53.232;6.556;2023-08-20T08:39:05;102171.84;;;22.15;63.56
29359;BME280;16347;53.232;6.556;2023-08-20T08:41:35;102167.84;;;22.24;63.08
29359;BME280;16347;53.232;6.556;2023-08-20T08:44:08;102180.19;;;22.22;63.63
29359;BME280;16347;53.232;6.556;2023-08-20T08:46:38;102176.69;;;22.41;63.34
29359;BME280;16347;53.232;6.556;2023-08-20T08:49:06;102174.22;;;22.53;62.66
29359;BME280;16347;53.232;6.556;2023-08-20T08:51:37;102182.56;;;22.59;62.30
29359;BME280;16347;53.232;6.556;2023-08-20T08:54:07;102187.13;;;22.73;61.45
29359;BME280;16347;53.232;6.556;2023-08-20T08:56:35;102190.78;;;22.80;60.86
29359;BME280;16347;53.232;6.556;2023-08-20T08:59:03;102178.88;;;22.86;60.69
29359;BME280;16347;53.232;6.556;2023-08-20T09:01:31;102182.06;;;22.90;59.87
29359;BME280;16347;53.232;6.556;2023-08-20T09:04:00;102179.97;;;22.92;59.27
29359;BME280;16347;53.232;6.556;2023-08-20T09:06:45;102176.97;;;23.00;59.58
29359;BME280;16347;53.232;6.556;2023-08-20T09:09:17;102192.34;;;22.96;59.20
29359;BME280;16347;53.232;6.556;2023-08-20T09:11:45;102186.84;;;23.03;58.55
29359;BME280;16347;53.232;6.556;2023-08-20T09:14:21;102190.50;;;23.10;58.37
29359;BME280;16347;53.232;6.556;2023-08-20T09:16:54;102194.31;;;23.09;58.93
29359;BME280;16347;53.232;6.556;2023-08-20T09:19:22;102200.94;;;23.14;58.92
29359;BME280;16347;53.232;6.556;2023-08-20T09:21:52;102205.19;;;23.10;58.79
29359;BME280;16347;53.232;6.556;2023-08-20T09:24:26;102209.50;;;23.19;58.14
29359;BME280;16347;53.232;6.556;2023-08-20T09:26:59;102207.38;;;23.21;58.19
29359;BME280;16347;53.232;6.556;2023-08-20T09:29:27;102216.38;;;23.23;56.65
29359;BME280;16347;53.232;6.556;2023-08-20T09:32:00;102211.25;;;23.27;55.88
29359;BME280;16347;53.232;6.556;2023-08-20T09:34:47;102208.25;;;23.28;56.64
29359;BME280;16347;53.232;6.556;2023-08-20T09:37:17;102198.44;;;23.32;56.69
29359;BME280;16347;53.232;6.556;2023-08-20T09:39:46;102199.06;;;23.34;56.45
29359;BME280;16347;53.232;6.556;2023-08-20T09:42:15;102195.69;;;23.39;56.07
29359;BME280;16347;53.232;6.556;2023-08-20T09:44:45;102193.38;;;23.42;56.55
29359;BME280;16347;53.232;6.556;2023-08-20T09:47:18;102197.22;;;23.48;57.46
29359;BME280;16347;53.232;6.556;2023-08-20T09:49:49;102191.91;;;23.53;57.47
29359;BME280;16347;53.232;6.556;2023-08-20T09:52:25;102196.59;;;23.59;56.90
29359;BME280;16347;53.232;6.556;2023-08-20T09:55:00;102200.88;;;23.55;55.97
29359;BME280;16347;53.232;6.556;2023-08-20T09:57:32;102205.13;;;23.58;55.35
29359;BME280;16347;53.232;6.556;2023-08-20T10:00:02;102206.66;;;23.54;55.34
29359;BME280;16347;53.232;6.556;2023-08-20T10:02:39;102209.41;;;23.54;55.65
29359;BME280;16347;53.232;6.556;2023-08-20T10:05:08;102207.91;;;23.58;56.00
29359;BME280;16347;53.232;6.556;2023-08-20T10:07:39;102205.56;;;23.68;55.86
29359;BME280;16347;53.232;6.556;2023-08-20T10:10:09;102208.34;;;23.74;55.84
29359;BME280;16347;53.232;6.556;2023-08-20T10:12:39;102203.66;;;23.75;56.17
29359;BME280;16347;53.232;6.556;2023-08-20T10:15:09;102210.31;;;23.80;56.46
29359;BME280;16347;53.232;6.556;2023-08-20T10:17:38;102210.50;;;23.79;56.38
29359;BME280;16347;53.232;6.556;2023-08-20T10:20:08;102216.69;;;23.81;55.63
29359;BME280;16347;53.232;6.556;2023-08-20T10:22:39;102213.50;;;23.84;54.35
29359;BME280;16347;53.232;6.556;2023-08-20T10:25:07;102213.72;;;23.82;54.88
29359;BME280;16347;53.232;6.556;2023-08-20T10:27:37;102219.28;;;23.89;54.98
29359;BME280;16347;53.232;6.556;2023-08-20T10:30:09;102210.94;;;23.89;51.99
29359;BME280;16347;53.232;6.556;2023-08-20T10:32:50;102213.72;;;23.89;52.43
29359;BME280;16347;53.232;6.556;2023-08-20T10:35:23;102212.22;;;23.86;52.54
29359;BME280;16347;53.232;6.556;2023-08-20T10:38:03;102213.28;;;23.92;52.99
29359;BME280;16347;53.232;6.556;2023-08-20T10:40:47;102207.28;;;24.01;53.54
29359;BME280;16347;53.232;6.556;2023-08-20T10:43:32;102212.22;;;24.06;53.59
29359;BME280;16347;53.232;6.556;2023-08-20T10:46:22;102210.31;;;24.13;53.46
29359;BME280;16347;53.232;6.556;2023-08-20T10:48:53;102207.09;;;24.10;52.53
29359;BME280;16347;53.232;6.556;2023-08-20T10:51:25;102195.31;;;24.08;52.25
29359;BME280;16347;53.232;6.556;2023-08-20T10:54:06;102214.16;;;24.12;50.91
29359;BME280;16347;53.232;6.556;2023-08-20T10:56:39;102207.09;;;24.03;49.92
29359;BME280;16347;53.232;6.556;2023-08-20T10:59:07;102204.94;;;23.98;50.09
29359;BME280;16347;53.232;6.556;2023-08-20T11:01:35;102199.63;;;24.10;51.16
29359;BME280;16347;53.232;6.556;2023-08-20T11:04:05;102198.34;;;24.19;51.32
29359;BME280;16347;53.232;6.556;2023-08-20T11:06:34;102205.81;;;24.25;52.04
29359;BME280;16347;53.232;6.556;2023-08-20T11:09:04;102206.22;;;24.35;51.38
29359;BME280;16347;53.232;6.556;2023-08-20T11:11:33;102200.66;;;24.35;50.96
29359;BME280;16347;53.232;6.556;2023-08-20T11:14:05;102200.66;;;24.35;49.69
29359;BME280;16347;53.232;6.556;2023-08-20T11:16:34;102205.34;;;24.35;48.71
29359;BME280;16347;53.232;6.556;2023-08-20T11:19:03;102208.38;;;24.33;49.17
29359;BME280;16347;53.232;6.556;2023-08-20T11:21:35;102205.16;;;24.36;49.37
29359;BME280;16347;53.232;6.556;2023-08-20T11:24:06;102206.88;;;24.37;48.38
29359;BME280;16347;53.232;6.556;2023-08-20T11:26:34;102206.44;;;24.40;48.48
29359;BME280;16347;53.232;6.556;2023-08-20T11:29:05;102207.69;;;24.44;47.58
29359;BME280;16347;53.232;6.556;2023-08-20T11:31:33;102209.41;;;24.45;47.92
29359;BME280;16347;53.232;6.556;2023-08-20T11:34:03;102201.50;;;24.49;48.48
29359;BME280;16347;53.232;6.556;2023-08-20T11:36:32;102194.19;;;24.55;48.65
29359;BME280;16347;53.232;6.556;2023-08-20T11:39:00;102206.56;;;24.65;49.00
29359;BME280;16347;53.232;6.556;2023-08-20T11:41:29;102208.28;;;24.66;49.31
29359;BME280;16347;53.232;6.556;2023-08-20T11:43:57;102208.28;;;24.66;48.76
29359;BME280;16347;53.232;6.556;2023-08-20T11:46:25;102211.28;;;24.65;48.79
29359;BME280;16347;53.232;6.556;2023-08-20T11:49:01;102216.63;;;24.73;48.76
29359;BME280;16347;53.232;6.556;2023-08-20T11:51:32;102208.69;;;24.76;47.71
29359;BME280;16347;53.232;6.556;2023-08-20T11:54:04;102219.16;;;24.87;47.47
29359;BME280;16347;53.232;6.556;2023-08-20T11:56:34;102201.81;;;24.85;47.35
29359;BME280;16347;53.232;6.556;2023-08-20T11:59:03;102210.81;;;24.94;47.43
29359;BME280;16347;53.232;6.556;2023-08-20T12:01:31;102204.53;;;25.05;47.45
29359;BME280;16347;53.232;6.556;2023-08-20T12:04:00;102195.03;;;25.19;46.22
29359;BME280;16347;53.232;6.556;2023-08-20T12:06:30;102209.97;;;25.31;45.52
29359;BME280;16347;53.232;6.556;2023-08-20T12:08:58;102198.50;;;25.46;45.45
29359;BME280;16347;53.232;6.556;2023-08-20T12:11:27;102200.72;;;25.69;45.28
29359;BME280;16347;53.232;6.556;2023-08-20T12:13:57;102190.22;;;25.71;44.89
29359;BME280;16347;53.232;6.556;2023-08-20T12:16:25;102199.16;;;25.79;44.85
29359;BME280;16347;53.232;6.556;2023-08-20T12:18:53;102199.91;;;25.93;44.24
29359;BME280;16347;53.232;6.556;2023-08-20T12:21:20;102201.88;;;26.11;44.26
29359;BME280;16347;53.232;6.556;2023-08-20T12:23:48;102194.09;;;26.19;44.40
29359;BME280;16347;53.232;6.556;2023-08-20T12:26:16;102195.16;;;26.43;44.05
29359;BME280;16347;53.232;6.556;2023-08-20T12:28:44;102190.34;;;26.50;43.59
29359;BME280;16347;53.232;6.556;2023-08-20T12:31:14;102188.72;;;26.61;43.14
29359;BME280;16347;53.232;6.556;2023-08-20T12:33:42;102180.69;;;26.71;43.22
29359;BME280;16347;53.232;6.556;2023-08-20T12:36:10;102173.28;;;26.76;43.10
29359;BME280;16347;53.232;6.556;2023-08-20T12:38:38;102184.34;;;26.89;42.59
29359;BME280;16347;53.232;6.556;2023-08-20T12:41:08;102178.72;;;27.08;42.58
29359;BME280;16347;53.232;6.556;2023-08-20T12:43:36;102179.50;;;27.15;41.89
29359;BME280;16347;53.232;6.556;2023-08-20T12:46:04;102181.00;;;27.29;42.26
29359;BME280;16347;53.232;6.556;2023-08-20T12:48:33;102178.00;;;27.42;41.14
29359;BME280;16347;53.232;6.556;2023-08-20T12:51:01;102173.28;;;27.42;40.87
29359;BME280;16347;53.232;6.556;2023-08-20T12:53:31;102177.25;;;27.53;41.79
29359;BME280;16347;53.232;6.556;2023-08-20T12:55:59;102176.97;;;27.55;42.15
29359;BME280;16347;53.232;6.556;2023-08-20T12:58:26;102190.63;;;27.63;42.30
29359;BME280;16347;53.232;6.556;2023-08-20T13:00:54;102186.59;;;27.70;40.66
29359;BME280;16347;53.232;6.556;2023-08-20T13:03:23;102182.25;;;27.63;40.89
29359;BME280;16347;53.232;6.556;2023-08-20T13:05:53;102178.47;;;27.69;41.08